sensor_id;sensor_type;location;lat;lon;timestamp;P1;durP1;ratioP1;P2;durP2;ratioP2
11328;SDS011;5719;42.714;23.732;2023-03-07T00:01:27;14.02;;;7.53;;
11328;SDS011;5719;42.714;23.732;2023-03-07T00:03:55;11.68;;;6.60;;
11328;SDS011;5719;42.714;23.732;2023-03-07T00:06:22;22.63;;;7.78;;
11328;SDS011;5719;42.714;23.732;2023-03-07T00:08:50;16.92;;;8.35;;
11328;SDS011;5719;42.714;23.732;2023-03-07T00:11:17;13.65;;;8.02;;
11328;SDS011;5719;42.714;23.732;2023-03-07T00:13:45;17.10;;;9.07;;
11328;SDS011;5719;42.714;23.732;2023-03-07T00:16:14;16.27;;;8.27;;
11328;SDS011;5719;42.714;23.732;2023-03-07T00:18:43;18.33;;;7.85;;
11328;SDS011;5719;42.714;23.732;2023-03-07T00:21:10;15.55;;;8.02;;
11328;SDS011;5719;42.714;23.732;2023-03-07T00:23:39;18.90;;;9.30;;
11328;SDS011;5719;42.714;23.732;2023-03-07T00:26:09;24.65;;;8.73;;
11328;SDS011;5719;42.714;23.732;2023-03-07T00:28:37;15.85;;;8.52;;
11328;SDS011;5719;42.714;23.732;2023-03-07T00:31:05;19.15;;;9.45;;
11328;SDS011;5719;42.714;23.732;2023-03-07T00:33:35;21.15;;;8.35;;
11328;SDS011;5719;42.714;23.732;2023-03-07T00:36:03;19.80;;;9.13;;
11328;SDS011;5719;42.714;23.732;2023-03-07T00:38:31;17.92;;;9.10;;
11328;SDS011;5719;42.714;23.732;2023-03-07T00:41:00;17.48;;;8.88;;
11328;SDS011;5719;42.714;23.732;2023-03-07T00:43:28;21.70;;;8.38;;
11328;SDS011;5719;42.714;23.732;2023-03-07T00:45:55;20.25;;;8.90;;
11328;SDS011;5719;42.714;23.732;2023-03-07T00:48:23;17.17;;;9.07;;
11328;SDS011;5719;42.714;23.732;2023-03-07T00:50:51;21.13;;;9.38;;
11328;SDS011;5719;42.714;23.732;2023-03-07T00:53:18;17.05;;;9.32;;
11328;SDS011;5719;42.714;23.732;2023-03-07T00:55:52;15.77;;;9.30;;
11328;SDS011;5719;42.714;23.732;2023-03-07T00:58:20;16.80;;;8.63;;
11328;SDS011;5719;42.714;23.732;2023-03-07T01:00:47;14.10;;;7.82;;
11328;SDS011;5719;42.714;23.732;2023-03-07T01:03:14;17.35;;;8.95;;
11328;SDS011;5719;42.714;23.732;2023-03-07T01:05:41;15.93;;;8.38;;
11328;SDS011;5719;42.714;23.732;2023-03-07T01:08:09;15.18;;;8.32;;
11328;SDS011;5719;42.714;23.732;2023-03-07T01:10:36;13.02;;;8.18;;
11328;SDS011;5719;42.714;23.732;2023-03-07T01:13:03;14.27;;;8.00;;
11328;SDS011;5719;42.714;23.732;2023-03-07T01:15:30;15.88;;;8.15;;
11328;SDS011;5719;42.714;23.732;2023-03-07T01:17:57;18.58;;;8.90;;
11328;SDS011;5719;42.714;23.732;2023-03-07T01:20:24;15.02;;;7.65;;
11328;SDS011;5719;42.714;23.732;2023-03-07T01:22:51;15.43;;;8.27;;
11328;SDS011;5719;42.714;23.732;2023-03-07T01:25:20;15.82;;;7.75;;
11328;SDS011;5719;42.714;23.732;2023-03-07T01:27:46;14.75;;;8.57;;
11328;SDS011;5719;42.714;23.732;2023-03-07T01:30:13;15.27;;;8.23;;
11328;SDS011;5719;42.714;23.732;2023-03-07T01:32:40;15.13;;;7.40;;
11328;SDS011;5719;42.714;23.732;2023-03-07T01:35:07;16.38;;;8.60;;
11328;SDS011;5719;42.714;23.732;2023-03-07T01:37:35;13.88;;;7.82;;
11328;SDS011;5719;42.714;23.732;2023-03-07T01:40:02;17.73;;;8.10;;
11328;SDS011;5719;42.714;23.732;2023-03-07T01:42:31;15.45;;;8.63;;
11328;SDS011;5719;42.714;23.732;2023-03-07T01:44:59;17.13;;;9.05;;
11328;SDS011;5719;42.714;23.732;2023-03-07T01:47:28;18.60;;;9.27;;
11328;SDS011;5719;42.714;23.732;2023-03-07T01:49:55;17.77;;;9.00;;
11328;SDS011;5719;42.714;23.732;2023-03-07T01:52:25;18.83;;;9.25;;
11328;SDS011;5719;42.714;23.732;2023-03-07T01:54:57;16.65;;;8.60;;
11328;SDS011;5719;42.714;23.732;2023-03-07T01:57:28;14.13;;;8.15;;
11328;SDS011;5719;42.714;23.732;2023-03-07T02:00:00;17.38;;;8.35;;
11328;SDS011;5719;42.714;23.732;2023-03-07T02:02:34;14.75;;;8.88;;
11328;SDS011;5719;42.714;23.732;2023-03-07T02:05:05;14.38;;;8.50;;
11328;SDS011;5719;42.714;23.732;2023-03-07T02:07:36;15.75;;;8.82;;
11328;SDS011;5719;42.714;23.732;2023-03-07T02:10:08;16.40;;;9.00;;
11328;SDS011;5719;42.714;23.732;2023-03-07T02:12:38;18.38;;;8.65;;
11328;SDS011;5719;42.714;23.732;2023-03-07T02:15:06;15.88;;;8.32;;
11328;SDS011;5719;42.714;23.732;2023-03-07T02:17:35;14.88;;;8.20;;
11328;SDS011;5719;42.714;23.732;2023-03-07T02:20:07;17.52;;;8.80;;
11328;SDS011;5719;42.714;23.732;2023-03-07T02:22:45;16.90;;;8.57;;
11328;SDS011;5719;42.714;23.732;2023-03-07T02:25:15;15.57;;;8.50;;
11328;SDS011;5719;42.714;23.732;2023-03-07T02:27:46;19.15;;;9.45;;
11328;SDS011;5719;42.714;23.732;2023-03-07T02:30:15;17.13;;;9.13;;
11328;SDS011;5719;42.714;23.732;2023-03-07T02:32:42;19.20;;;9.23;;
11328;SDS011;5719;42.714;23.732;2023-03-07T02:35:10;15.27;;;8.82;;
11328;SDS011;5719;42.714;23.732;2023-03-07T02:37:40;17.80;;;10.13;;
11328;SDS011;5719;42.714;23.732;2023-03-07T02:40:11;17.40;;;10.00;;
11328;SDS011;5719;42.714;23.732;2023-03-07T02:42:41;17.88;;;10.15;;
11328;SDS011;5719;42.714;23.732;2023-03-07T02:45:12;14.57;;;8.95;;
11328;SDS011;5719;42.714;23.732;2023-03-07T02:47:41;18.52;;;9.60;;
11328;SDS011;5719;42.714;23.732;2023-03-07T02:50:09;16.40;;;8.88;;
11328;SDS011;5719;42.714;23.732;2023-03-07T02:52:37;16.65;;;9.60;;
11328;SDS011;5719;42.714;23.732;2023-03-07T02:55:05;18.42;;;9.65;;
11328;SDS011;5719;42.714;23.732;2023-03-07T02:57:33;17.08;;;9.73;;
11328;SDS011;5719;42.714;23.732;2023-03-07T03:00:00;17.83;;;9.68;;
11328;SDS011;5719;42.714;23.732;2023-03-07T03:02:28;17.73;;;9.32;;
11328;SDS011;5719;42.714;23.732;2023-03-07T03:04:55;18.02;;;9.18;;
11328;SDS011;5719;42.714;23.732;2023-03-07T03:07:22;18.48;;;9.52;;
11328;SDS011;5719;42.714;23.732;2023-03-07T03:09:49;16.35;;;8.95;;
11328;SDS011;5719;42.714;23.732;2023-03-07T03:12:16;15.43;;;9.07;;
11328;SDS011;5719;42.714;23.732;2023-03-07T03:14:43;12.90;;;8.13;;
11328;SDS011;5719;42.714;23.732;2023-03-07T03:17:09;12.13;;;7.85;;
11328;SDS011;5719;42.714;23.732;2023-03-07T03:19:38;17.55;;;9.40;;
11328;SDS011;5719;42.714;23.732;2023-03-07T03:22:05;17.75;;;9.50;;
11328;SDS011;5719;42.714;23.732;2023-03-07T03:24:31;15.70;;;10.25;;
11328;SDS011;5719;42.714;23.732;2023-03-07T03:26:58;19.98;;;9.90;;
11328;SDS011;5719;42.714;23.732;2023-03-07T03:29:25;22.45;;;9.95;;
11328;SDS011;5719;42.714;23.732;2023-03-07T03:31:52;17.42;;;9.75;;
11328;SDS011;5719;42.714;23.732;2023-03-07T03:34:19;16.50;;;9.25;;
11328;SDS011;5719;42.714;23.732;2023-03-07T03:36:47;18.80;;;9.18;;
11328;SDS011;5719;42.714;23.732;2023-03-07T03:39:14;15.20;;;7.93;;
11328;SDS011;5719;42.714;23.732;2023-03-07T03:41:41;13.23;;;8.15;;
11328;SDS011;5719;42.714;23.732;2023-03-07T03:44:08;15.85;;;8.77;;
11328;SDS011;5719;42.714;23.732;2023-03-07T03:46:35;15.00;;;8.55;;
11328;SDS011;5719;42.714;23.732;2023-03-07T03:49:02;16.60;;;8.57;;
11328;SDS011;5719;42.714;23.732;2023-03-07T03:51:30;14.70;;;8.35;;
11328;SDS011;5719;42.714;23.732;2023-03-07T03:53:58;20.95;;;10.13;;
11328;SDS011;5719;42.714;23.732;2023-03-07T03:56:25;16.80;;;9.20;;
11328;SDS011;5719;42.714;23.732;2023-03-07T03:58:54;14.57;;;9.15;;
11328;SDS011;5719;42.714;23.732;2023-03-07T04:01:23;17.90;;;10.07;;
11328;SDS011;5719;42.714;23.732;2023-03-07T04:03:52;16.90;;;9.70;;
11328;SDS011;5719;42.714;23.732;2023-03-07T04:06:20;18.67;;;9.98;;
11328;SDS011;5719;42.714;23.732;2023-03-07T04:08:48;21.20;;;10.35;;
11328;SDS011;5719;42.714;23.732;2023-03-07T04:11:17;16.10;;;9.65;;
11328;SDS011;5719;42.714;23.732;2023-03-07T04:13:45;15.05;;;9.20;;
11328;SDS011;5719;42.714;23.732;2023-03-07T04:16:12;16.70;;;9.13;;
11328;SDS011;5719;42.714;23.732;2023-03-07T04:18:39;15.40;;;8.77;;
11328;SDS011;5719;42.714;23.732;2023-03-07T04:21:07;15.55;;;9.30;;
11328;SDS011;5719;42.714;23.732;2023-03-07T04:23:35;15.52;;;8.70;;
11328;SDS011;5719;42.714;23.732;2023-03-07T04:26:03;14.48;;;9.13;;
11328;SDS011;5719;42.714;23.732;2023-03-07T04:28:34;24.52;;;11.80;;
11328;SDS011;5719;42.714;23.732;2023-03-07T04:31:09;18.27;;;10.50;;
11328;SDS011;5719;42.714;23.732;2023-03-07T04:33:36;14.57;;;8.95;;
11328;SDS011;5719;42.714;23.732;2023-03-07T04:36:03;19.15;;;10.20;;
11328;SDS011;5719;42.714;23.732;2023-03-07T04:38:30;20.92;;;9.15;;
11328;SDS011;5719;42.714;23.732;2023-03-07T04:40:57;18.67;;;10.60;;
11328;SDS011;5719;42.714;23.732;2023-03-07T04:43:24;17.13;;;10.50;;
11328;SDS011;5719;42.714;23.732;2023-03-07T04:45:52;20.55;;;12.27;;
11328;SDS011;5719;42.714;23.732;2023-03-07T04:48:19;20.67;;;11.80;;
11328;SDS011;5719;42.714;23.732;2023-03-07T04:50:47;20.23;;;11.82;;
11328;SDS011;5719;42.714;23.732;2023-03-07T04:53:15;21.45;;;10.60;;
11328;SDS011;5719;42.714;23.732;2023-03-07T04:55:42;22.35;;;12.20;;
11328;SDS011;5719;42.714;23.732;2023-03-07T04:58:09;22.88;;;10.52;;
11328;SDS011;5719;42.714;23.732;2023-03-07T05:00:38;21.77;;;10.57;;
11328;SDS011;5719;42.714;23.732;2023-03-07T05:03:06;21.13;;;10.30;;
11328;SDS011;5719;42.714;23.732;2023-03-07T05:05:34;17.80;;;10.85;;
11328;SDS011;5719;42.714;23.732;2023-03-07T05:08:01;17.75;;;9.80;;
11328;SDS011;5719;42.714;23.732;2023-03-07T05:10:29;20.83;;;10.30;;
11328;SDS011;5719;42.714;23.732;2023-03-07T05:12:56;19.50;;;9.75;;
11328;SDS011;5719;42.714;23.732;2023-03-07T05:15:23;23.52;;;10.27;;
11328;SDS011;5719;42.714;23.732;2023-03-07T05:17:50;21.05;;;10.57;;
11328;SDS011;5719;42.714;23.732;2023-03-07T05:20:18;18.85;;;10.38;;
11328;SDS011;5719;42.714;23.732;2023-03-07T05:22:46;18.77;;;10.57;;
11328;SDS011;5719;42.714;23.732;2023-03-07T05:25:13;19.80;;;10.50;;
11328;SDS011;5719;42.714;23.732;2023-03-07T05:27:40;16.27;;;9.07;;
11328;SDS011;5719;42.714;23.732;2023-03-07T05:30:07;17.67;;;9.65;;
11328;SDS011;5719;42.714;23.732;2023-03-07T05:32:36;19.45;;;10.50;;
11328;SDS011;5719;42.714;23.732;2023-03-07T05:35:03;17.42;;;10.50;;
11328;SDS011;5719;42.714;23.732;2023-03-07T05:37:32;28.80;;;14.90;;
11328;SDS011;5719;42.714;23.732;2023-03-07T05:39:58;21.15;;;12.27;;
11328;SDS011;5719;42.714;23.732;2023-03-07T05:42:25;22.48;;;12.23;;
11328;SDS011;5719;42.714;23.732;2023-03-07T05:44:52;24.80;;;12.75;;
11328;SDS011;5719;42.714;23.732;2023-03-07T05:47:19;27.10;;;11.57;;
11328;SDS011;5719;42.714;23.732;2023-03-07T05:49:46;23.05;;;10.95;;
11328;SDS011;5719;42.714;23.732;2023-03-07T05:52:13;21.23;;;10.20;;
11328;SDS011;5719;42.714;23.732;2023-03-07T05:54:41;16.70;;;9.98;;
11328;SDS011;5719;42.714;23.732;2023-03-07T05:57:08;17.88;;;9.82;;
11328;SDS011;5719;42.714;23.732;2023-03-07T05:59:35;17.50;;;9.23;;
11328;SDS011;5719;42.714;23.732;2023-03-07T06:02:01;15.60;;;9.43;;
11328;SDS011;5719;42.714;23.732;2023-03-07T06:04:28;17.67;;;9.15;;
11328;SDS011;5719;42.714;23.732;2023-03-07T06:06:55;17.13;;;9.43;;
11328;SDS011;5719;42.714;23.732;2023-03-07T06:09:23;16.98;;;9.80;;
11328;SDS011;5719;42.714;23.732;2023-03-07T06:11:51;17.88;;;10.38;;
11328;SDS011;5719;42.714;23.732;2023-03-07T06:14:18;15.40;;;9.73;;
11328;SDS011;5719;42.714;23.732;2023-03-07T06:16:45;17.38;;;10.63;;
11328;SDS011;5719;42.714;23.732;2023-03-07T06:19:12;22.30;;;10.73;;
11328;SDS011;5719;42.714;23.732;2023-03-07T06:21:39;15.57;;;9.32;;
11328;SDS011;5719;42.714;23.732;2023-03-07T06:24:07;13.80;;;8.00;;
11328;SDS011;5719;42.714;23.732;2023-03-07T06:26:34;11.85;;;7.70;;
11328;SDS011;5719;42.714;23.732;2023-03-07T06:29:02;14.52;;;8.43;;
11328;SDS011;5719;42.714;23.732;2023-03-07T06:31:29;17.30;;;10.13;;
11328;SDS011;5719;42.714;23.732;2023-03-07T06:33:56;21.25;;;9.73;;
11328;SDS011;5719;42.714;23.732;2023-03-07T06:36:23;20.35;;;9.93;;
11328;SDS011;5719;42.714;23.732;2023-03-07T06:38:50;17.33;;;10.23;;
11328;SDS011;5719;42.714;23.732;2023-03-07T06:41:17;17.70;;;10.13;;
11328;SDS011;5719;42.714;23.732;2023-03-07T06:43:44;20.73;;;11.32;;
11328;SDS011;5719;42.714;23.732;2023-03-07T06:46:12;19.95;;;10.20;;
11328;SDS011;5719;42.714;23.732;2023-03-07T06:48:41;20.65;;;10.38;;
11328;SDS011;5719;42.714;23.732;2023-03-07T06:51:08;16.85;;;10.82;;
11328;SDS011;5719;42.714;23.732;2023-03-07T06:53:35;19.40;;;10.98;;
11328;SDS011;5719;42.714;23.732;2023-03-07T06:56:02;20.98;;;10.95;;
11328;SDS011;5719;42.714;23.732;2023-03-07T06:58:29;19.15;;;11.15;;
11328;SDS011;5719;42.714;23.732;2023-03-07T07:00:56;19.52;;;10.80;;
11328;SDS011;5719;42.714;23.732;2023-03-07T07:03:25;17.98;;;10.52;;
11328;SDS011;5719;42.714;23.732;2023-03-07T07:05:52;21.15;;;11.75;;
11328;SDS011;5719;42.714;23.732;2023-03-07T07:08:18;20.45;;;11.52;;
11328;SDS011;5719;42.714;23.732;2023-03-07T07:10:45;22.15;;;10.63;;
11328;SDS011;5719;42.714;23.732;2023-03-07T07:13:12;19.17;;;10.20;;
11328;SDS011;5719;42.714;23.732;2023-03-07T07:15:39;19.17;;;11.30;;
11328;SDS011;5719;42.714;23.732;2023-03-07T07:18:06;19.83;;;11.23;;
11328;SDS011;5719;42.714;23.732;2023-03-07T07:20:34;19.13;;;10.90;;
11328;SDS011;5719;42.714;23.732;2023-03-07T07:23:01;20.15;;;10.02;;
11328;SDS011;5719;42.714;23.732;2023-03-07T07:25:28;13.55;;;9.00;;
11328;SDS011;5719;42.714;23.732;2023-03-07T07:27:55;11.35;;;7.70;;
11328;SDS011;5719;42.714;23.732;2023-03-07T07:30:22;11.07;;;7.57;;
11328;SDS011;5719;42.714;23.732;2023-03-07T07:32:49;12.57;;;8.13;;
11328;SDS011;5719;42.714;23.732;2023-03-07T07:35:16;14.88;;;7.93;;
11328;SDS011;5719;42.714;23.732;2023-03-07T07:37:44;12.85;;;7.10;;
11328;SDS011;5719;42.714;23.732;2023-03-07T07:40:11;9.25;;;5.93;;
11328;SDS011;5719;42.714;23.732;2023-03-07T07:42:39;9.55;;;5.70;;
11328;SDS011;5719;42.714;23.732;2023-03-07T07:45:09;5.78;;;4.85;;
11328;SDS011;5719;42.714;23.732;2023-03-07T07:47:36;6.82;;;4.50;;
11328;SDS011;5719;42.714;23.732;2023-03-07T07:50:03;8.93;;;4.90;;
11328;SDS011;5719;42.714;23.732;2023-03-07T07:52:31;8.23;;;5.20;;
11328;SDS011;5719;42.714;23.732;2023-03-07T07:55:00;6.55;;;4.25;;
11328;SDS011;5719;42.714;23.732;2023-03-07T07:57:27;7.57;;;4.72;;
11328;SDS011;5719;42.714;23.732;2023-03-07T07:59:54;8.13;;;4.72;;
11328;SDS011;5719;42.714;23.732;2023-03-07T08:02:21;7.47;;;4.40;;
11328;SDS011;5719;42.714;23.732;2023-03-07T08:04:48;5.07;;;4.25;;
11328;SDS011;5719;42.714;23.732;2023-03-07T08:07:15;4.93;;;4.38;;
11328;SDS011;5719;42.714;23.732;2023-03-07T08:09:42;13.00;;;3.92;;
11328;SDS011;5719;42.714;23.732;2023-03-07T08:12:11;5.65;;;3.65;;
11328;SDS011;5719;42.714;23.732;2023-03-07T08:14:38;5.07;;;3.42;;
11328;SDS011;5719;42.714;23.732;2023-03-07T08:17:05;6.05;;;3.90;;
11328;SDS011;5719;42.714;23.732;2023-03-07T08:19:32;6.97;;;3.20;;
11328;SDS011;5719;42.714;23.732;2023-03-07T08:21:59;7.75;;;4.15;;
11328;SDS011;5719;42.714;23.732;2023-03-07T08:24:26;7.47;;;3.95;;
11328;SDS011;5719;42.714;23.732;2023-03-07T08:26:54;6.90;;;3.15;;
11328;SDS011;5719;42.714;23.732;2023-03-07T08:29:22;5.28;;;2.80;;
11328;SDS011;5719;42.714;23.732;2023-03-07T08:31:49;9.57;;;2.40;;
11328;SDS011;5719;42.714;23.732;2023-03-07T08:34:17;4.28;;;2.50;;
11328;SDS011;5719;42.714;23.732;2023-03-07T08:36:44;5.30;;;2.50;;
11328;SDS011;5719;42.714;23.732;2023-03-07T08:39:12;2.92;;;2.05;;
11328;SDS011;5719;42.714;23.732;2023-03-07T08:41:38;4.78;;;2.42;;
11328;SDS011;5719;42.714;23.732;2023-03-07T08:44:06;6.72;;;3.58;;
11328;SDS011;5719;42.714;23.732;2023-03-07T08:46:34;2.65;;;2.40;;
11328;SDS011;5719;42.714;23.732;2023-03-07T08:49:01;4.43;;;2.22;;
11328;SDS011;5719;42.714;23.732;2023-03-07T08:51:28;4.38;;;2.53;;
11328;SDS011;5719;42.714;23.732;2023-03-07T08:53:56;2.63;;;1.92;;
11328;SDS011;5719;42.714;23.732;2023-03-07T08:56:23;2.47;;;2.10;;
11328;SDS011;5719;42.714;23.732;2023-03-07T08:58:51;2.72;;;2.00;;
11328;SDS011;5719;42.714;23.732;2023-03-07T09:01:18;5.80;;;2.70;;
11328;SDS011;5719;42.714;23.732;2023-03-07T09:03:47;5.35;;;2.60;;
11328;SDS011;5719;42.714;23.732;2023-03-07T09:06:14;3.10;;;2.25;;
11328;SDS011;5719;42.714;23.732;2023-03-07T09:08:43;5.55;;;2.45;;
11328;SDS011;5719;42.714;23.732;2023-03-07T09:11:09;3.05;;;2.75;;
11328;SDS011;5719;42.714;23.732;2023-03-07T09:13:36;3.13;;;2.40;;
11328;SDS011;5719;42.714;23.732;2023-03-07T09:16:04;4.13;;;2.55;;
11328;SDS011;5719;42.714;23.732;2023-03-07T09:18:31;3.33;;;2.60;;
11328;SDS011;5719;42.714;23.732;2023-03-07T09:21:00;5.70;;;2.70;;
11328;SDS011;5719;42.714;23.732;2023-03-07T09:23:28;3.33;;;2.55;;
11328;SDS011;5719;42.714;23.732;2023-03-07T09:25:57;3.60;;;2.25;;
11328;SDS011;5719;42.714;23.732;2023-03-07T09:28:24;3.10;;;1.92;;
11328;SDS011;5719;42.714;23.732;2023-03-07T09:30:51;3.42;;;2.45;;
11328;SDS011;5719;42.714;23.732;2023-03-07T09:33:18;2.22;;;2.05;;
11328;SDS011;5719;42.714;23.732;2023-03-07T09:35:45;3.60;;;2.17;;
11328;SDS011;5719;42.714;23.732;2023-03-07T09:38:14;3.15;;;2.17;;
11328;SDS011;5719;42.714;23.732;2023-03-07T09:40:42;3.97;;;2.45;;
11328;SDS011;5719;42.714;23.732;2023-03-07T09:43:14;4.32;;;2.28;;
11328;SDS011;5719;42.714;23.732;2023-03-07T09:45:46;3.97;;;2.40;;
11328;SDS011;5719;42.714;23.732;2023-03-07T09:48:29;2.50;;;1.80;;
11328;SDS011;5719;42.714;23.732;2023-03-07T09:51:24;3.85;;;2.08;;
11328;SDS011;5719;42.714;23.732;2023-03-07T09:54:00;4.13;;;2.50;;
11328;SDS011;5719;42.714;23.732;2023-03-07T09:56:31;2.53;;;2.08;;
11328;SDS011;5719;42.714;23.732;2023-03-07T09:59:04;3.17;;;2.03;;
11328;SDS011;5719;42.714;23.732;2023-03-07T10:01:37;2.88;;;1.90;;
11328;SDS011;5719;42.714;23.732;2023-03-07T10:04:11;3.92;;;2.60;;
11328;SDS011;5719;42.714;23.732;2023-03-07T10:06:42;5.63;;;2.58;;
11328;SDS011;5719;42.714;23.732;2023-03-07T10:09:18;5.70;;;2.15;;
11328;SDS011;5719;42.714;23.732;2023-03-07T10:11:52;3.67;;;1.90;;
11328;SDS011;5719;42.714;23.732;2023-03-07T10:14:38;1.88;;;1.77;;
11328;SDS011;5719;42.714;23.732;2023-03-07T10:17:17;4.05;;;2.40;;
11328;SDS011;5719;42.714;23.732;2023-03-07T10:19:55;5.15;;;2.20;;
11328;SDS011;5719;42.714;23.732;2023-03-07T10:22:32;3.35;;;2.35;;
11328;SDS011;5719;42.714;23.732;2023-03-07T10:25:12;5.13;;;2.33;;
11328;SDS011;5719;42.714;23.732;2023-03-07T10:27:49;3.10;;;1.95;;
11328;SDS011;5719;42.714;23.732;2023-03-07T10:30:19;3.47;;;2.42;;
11328;SDS011;5719;42.714;23.732;2023-03-07T10:32:47;4.03;;;2.30;;
11328;SDS011;5719;42.714;23.732;2023-03-07T10:35:17;2.28;;;1.80;;
11328;SDS011;5719;42.714;23.732;2023-03-07T10:37:46;5.28;;;2.00;;
11328;SDS011;5719;42.714;23.732;2023-03-07T10:40:24;6.03;;;2.05;;
11328;SDS011;5719;42.714;23.732;2023-03-07T10:42:55;2.88;;;1.90;;
11328;SDS011;5719;42.714;23.732;2023-03-07T10:45:22;3.10;;;1.70;;
11328;SDS011;5719;42.714;23.732;2023-03-07T10:47:51;2.58;;;1.90;;
11328;SDS011;5719;42.714;23.732;2023-03-07T10:50:26;2.20;;;1.67;;
11328;SDS011;5719;42.714;23.732;2023-03-07T10:53:00;3.28;;;1.23;;
11328;SDS011;5719;42.714;23.732;2023-03-07T10:55:38;2.72;;;1.98;;
11328;SDS011;5719;42.714;23.732;2023-03-07T10:58:16;3.63;;;1.63;;
11328;SDS011;5719;42.714;23.732;2023-03-07T11:00:58;4.97;;;1.67;;
11328;SDS011;5719;42.714;23.732;2023-03-07T11:03:28;2.50;;;1.92;;
11328;SDS011;5719;42.714;23.732;2023-03-07T11:05:58;2.10;;;1.90;;
11328;SDS011;5719;42.714;23.732;2023-03-07T11:08:29;2.42;;;1.70;;
11328;SDS011;5719;42.714;23.732;2023-03-07T11:10:58;5.43;;;2.17;;
11328;SDS011;5719;42.714;23.732;2023-03-07T11:13:26;3.00;;;2.20;;
11328;SDS011;5719;42.714;23.732;2023-03-07T11:16:07;3.83;;;2.00;;
11328;SDS011;5719;42.714;23.732;2023-03-07T11:18:41;4.10;;;1.90;;
11328;SDS011;5719;42.714;23.732;2023-03-07T11:21:23;3.30;;;2.33;;
11328;SDS011;5719;42.714;23.732;2023-03-07T11:23:56;3.53;;;1.77;;
11328;SDS011;5719;42.714;23.732;2023-03-07T11:26:28;7.57;;;1.98;;
11328;SDS011;5719;42.714;23.732;2023-03-07T11:29:04;2.45;;;1.48;;
11328;SDS011;5719;42.714;23.732;2023-03-07T11:31:34;4.68;;;1.90;;
11328;SDS011;5719;42.714;23.732;2023-03-07T11:34:14;2.88;;;1.67;;
11328;SDS011;5719;42.714;23.732;2023-03-07T11:36:54;2.03;;;1.80;;
11328;SDS011;5719;42.714;23.732;2023-03-07T11:39:25;2.00;;;1.75;;
11328;SDS011;5719;42.714;23.732;2023-03-07T11:42:02;2.05;;;1.63;;
11328;SDS011;5719;42.714;23.732;2023-03-07T11:44:38;1.95;;;1.73;;
11328;SDS011;5719;42.714;23.732;2023-03-07T11:50:13;4.38;;;2.05;;
11328;SDS011;5719;42.714;23.732;2023-03-07T11:52:51;3.08;;;1.40;;
11328;SDS011;5719;42.714;23.732;2023-03-07T11:55:35;5.38;;;1.40;;
11328;SDS011;5719;42.714;23.732;2023-03-07T11:58:15;2.88;;;1.55;;
11328;SDS011;5719;42.714;23.732;2023-03-07T12:01:06;4.60;;;1.27;;
11328;SDS011;5719;42.714;23.732;2023-03-07T12:03:57;2.80;;;1.10;;
11328;SDS011;5719;42.714;23.732;2023-03-07T12:06:47;1.80;;;1.40;;
11328;SDS011;5719;42.714;23.732;2023-03-07T12:09:25;3.42;;;1.58;;
11328;SDS011;5719;42.714;23.732;2023-03-07T12:12:09;3.28;;;1.45;;
11328;SDS011;5719;42.714;23.732;2023-03-07T12:14:57;3.28;;;1.92;;
11328;SDS011;5719;42.714;23.732;2023-03-07T12:17:34;1.30;;;1.20;;
11328;SDS011;5719;42.714;23.732;2023-03-07T12:20:22;2.05;;;1.40;;
11328;SDS011;5719;42.714;23.732;2023-03-07T12:22:59;1.30;;;1.20;;
11328;SDS011;5719;42.714;23.732;2023-03-07T12:25:33;3.75;;;1.17;;
11328;SDS011;5719;42.714;23.732;2023-03-07T12:28:04;1.83;;;1.25;;
11328;SDS011;5719;42.714;23.732;2023-03-07T12:30:43;2.88;;;1.50;;
11328;SDS011;5719;42.714;23.732;2023-03-07T12:33:19;3.50;;;1.60;;
11328;SDS011;5719;42.714;23.732;2023-03-07T12:35:52;1.67;;;1.48;;
11328;SDS011;5719;42.714;23.732;2023-03-07T12:38:25;3.30;;;1.40;;
11328;SDS011;5719;42.714;23.732;2023-03-07T12:44:28;1.92;;;1.50;;
11328;SDS011;5719;42.714;23.732;2023-03-07T12:47:02;1.70;;;1.58;;
11328;SDS011;5719;42.714;23.732;2023-03-07T12:49:37;2.38;;;1.50;;
11328;SDS011;5719;42.714;23.732;2023-03-07T12:52:12;1.48;;;1.30;;
11328;SDS011;5719;42.714;23.732;2023-03-07T12:54:44;2.38;;;1.40;;
11328;SDS011;5719;42.714;23.732;2023-03-07T12:57:18;1.85;;;1.55;;
11328;SDS011;5719;42.714;23.732;2023-03-07T12:59:52;1.63;;;1.52;;
11328;SDS011;5719;42.714;23.732;2023-03-07T13:02:26;3.05;;;1.50;;
11328;SDS011;5719;42.714;23.732;2023-03-07T13:04:54;1.92;;;1.50;;
11328;SDS011;5719;42.714;23.732;2023-03-07T13:07:24;1.83;;;1.25;;
11328;SDS011;5719;42.714;23.732;2023-03-07T13:09:54;2.20;;;1.50;;
11328;SDS011;5719;42.714;23.732;2023-03-07T13:12:33;2.25;;;1.55;;
11328;SDS011;5719;42.714;23.732;2023-03-07T13:15:01;1.60;;;1.35;;
11328;SDS011;5719;42.714;23.732;2023-03-07T13:20:35;3.53;;;1.50;;
11328;SDS011;5719;42.714;23.732;2023-03-07T13:26:05;1.75;;;1.30;;
11328;SDS011;5719;42.714;23.732;2023-03-07T13:28:46;3.70;;;1.35;;
11328;SDS011;5719;42.714;23.732;2023-03-07T13:40:26;1.83;;;1.10;;
11328;SDS011;5719;42.714;23.732;2023-03-07T13:42:55;3.60;;;1.50;;
11328;SDS011;5719;42.714;23.732;2023-03-07T13:51:11;2.28;;;1.70;;
11328;SDS011;5719;42.714;23.732;2023-03-07T13:53:40;1.40;;;1.30;;
11328;SDS011;5719;42.714;23.732;2023-03-07T13:56:11;3.03;;;1.33;;
11328;SDS011;5719;42.714;23.732;2023-03-07T13:58:50;1.60;;;1.50;;
11328;SDS011;5719;42.714;23.732;2023-03-07T14:01:20;3.63;;;1.45;;
11328;SDS011;5719;42.714;23.732;2023-03-07T14:03:50;4.10;;;1.40;;
11328;SDS011;5719;42.714;23.732;2023-03-07T14:06:21;3.35;;;1.55;;
11328;SDS011;5719;42.714;23.732;2023-03-07T14:08:53;4.05;;;1.42;;
11328;SDS011;5719;42.714;23.732;2023-03-07T14:11:22;4.32;;;1.42;;
11328;SDS011;5719;42.714;23.732;2023-03-07T14:14:02;2.05;;;1.48;;
11328;SDS011;5719;42.714;23.732;2023-03-07T14:16:46;1.63;;;1.10;;
11328;SDS011;5719;42.714;23.732;2023-03-07T14:19:36;2.28;;;1.55;;
11328;SDS011;5719;42.714;23.732;2023-03-07T14:22:16;1.40;;;1.30;;
11328;SDS011;5719;42.714;23.732;2023-03-07T14:24:59;5.13;;;1.40;;
11328;SDS011;5719;42.714;23.732;2023-03-07T14:27:46;2.03;;;1.20;;
11328;SDS011;5719;42.714;23.732;2023-03-07T14:30:16;2.28;;;1.00;;
11328;SDS011;5719;42.714;23.732;2023-03-07T14:32:44;4.55;;;1.30;;
11328;SDS011;5719;42.714;23.732;2023-03-07T14:35:11;4.55;;;1.30;;
11328;SDS011;5719;42.714;23.732;2023-03-07T14:37:40;3.17;;;1.60;;
11328;SDS011;5719;42.714;23.732;2023-03-07T14:40:17;2.95;;;1.60;;
11328;SDS011;5719;42.714;23.732;2023-03-07T14:42:54;2.20;;;1.48;;
11328;SDS011;5719;42.714;23.732;2023-03-07T14:45:28;1.67;;;1.25;;
11328;SDS011;5719;42.714;23.732;2023-03-07T14:48:17;3.03;;;1.15;;
11328;SDS011;5719;42.714;23.732;2023-03-07T14:50:59;5.13;;;1.30;;
11328;SDS011;5719;42.714;23.732;2023-03-07T14:53:33;2.78;;;1.38;;
11328;SDS011;5719;42.714;23.732;2023-03-07T14:56:02;4.45;;;1.50;;
11328;SDS011;5719;42.714;23.732;2023-03-07T14:58:33;1.50;;;1.30;;
11328;SDS011;5719;42.714;23.732;2023-03-07T15:01:02;3.03;;;1.20;;
11328;SDS011;5719;42.714;23.732;2023-03-07T15:03:31;2.50;;;1.30;;
11328;SDS011;5719;42.714;23.732;2023-03-07T15:05:59;3.13;;;1.40;;
11328;SDS011;5719;42.714;23.732;2023-03-07T15:08:28;2.05;;;1.20;;
11328;SDS011;5719;42.714;23.732;2023-03-07T15:10:58;2.17;;;1.15;;
11328;SDS011;5719;42.714;23.732;2023-03-07T15:13:32;1.52;;;1.42;;
11328;SDS011;5719;42.714;23.732;2023-03-07T15:16:03;2.40;;;1.02;;
11328;SDS011;5719;42.714;23.732;2023-03-07T15:18:34;1.17;;;1.08;;
11328;SDS011;5719;42.714;23.732;2023-03-07T15:21:04;1.42;;;1.00;;
11328;SDS011;5719;42.714;23.732;2023-03-07T15:23:34;3.00;;;1.25;;